createdAt,value
2023-02-02T00:01:47.132Z,98130.09
2023-02-02T00:04:18.196Z,98139.56
2023-02-02T00:06:47.466Z,98150.53
2023-02-02T00:09:19.059Z,98128.34
2023-02-02T00:11:49.105Z,98135.06
2023-02-02T00:14:18.042Z,98128.25
2023-02-02T00:16:49.572Z,98121.50
2023-02-02T00:19:19.365Z,98113.97
2023-02-02T00:21:48.343Z,98118.28
2023-02-02T00:24:18.990Z,98110.63
2023-02-02T00:26:50.109Z,98119.00
2023-02-02T00:29:21.028Z,98125.84
2023-02-02T00:31:51.535Z,98138.56
2023-02-02T00:34:20.948Z,98100.19
2023-02-02T00:36:50.583Z,98111.13
2023-02-02T00:39:21.810Z,98124.72
2023-02-02T00:41:51.216Z,98113.59
2023-02-02T00:44:37.775Z,98121.22
2023-02-02T00:47:07.901Z,98113.56
2023-02-02T00:49:36.371Z,98110.09
2023-02-02T00:52:04.945Z,98112.81
2023-02-02T00:54:33.392Z,98120.56
2023-02-02T00:57:01.880Z,98128.25
2023-02-02T00:59:30.286Z,98135.94
2023-02-02T01:01:58.732Z,98131.56
2023-02-02T01:04:28.476Z,98134.19
2023-02-02T01:06:57.196Z,98123.09
2023-02-02T01:09:25.567Z,98130.00
2023-02-02T01:11:54.054Z,98108.50
2023-02-02T01:14:22.575Z,98110.34
2023-02-02T01:16:51.007Z,98117.88
2023-02-02T01:19:19.881Z,98116.22
2023-02-02T01:21:51.025Z,98121.38
2023-02-02T01:24:21.860Z,98120.50
2023-02-02T01:26:50.335Z,98130.69
2023-02-02T01:29:18.786Z,98120.41
2023-02-02T01:31:49.350Z,98140.97
2023-02-02T01:34:17.881Z,98134.09
2023-02-02T01:36:46.425Z,98129.91
2023-02-02T01:39:16.539Z,98130.75
2023-02-02T01:41:44.974Z,98132.44
2023-02-02T01:44:50.830Z,98123.06
2023-02-02T01:47:20.307Z,98128.09
2023-02-02T01:49:49.118Z,98129.78
2023-02-02T01:52:20.740Z,98127.28
2023-02-02T01:54:54.955Z,98135.94
2023-02-02T01:57:28.593Z,98125.81
2023-02-02T02:00:01.621Z,98124.38
2023-02-02T02:02:32.054Z,98120.06
2023-02-02T02:05:02.844Z,98126.16
2023-02-02T02:07:31.599Z,98119.31
2023-02-02T02:10:01.582Z,98119.28
2023-02-02T02:12:31.180Z,98143.03
2023-02-02T02:15:17.097Z,98120.16
2023-02-02T02:18:01.499Z,98125.22
2023-02-02T02:21:04.946Z,98123.69
2023-02-02T02:24:19.738Z,98136.34
2023-02-02T02:27:03.695Z,98133.81
2023-02-02T02:30:08.106Z,98134.66
2023-02-02T02:32:47.479Z,98126.34
2023-02-02T02:35:28.296Z,98127.91
2023-02-02T02:38:01.914Z,98127.09
2023-02-02T02:40:37.216Z,98124.53
2023-02-02T02:43:12.101Z,98126.25
2023-02-02T02:45:42.375Z,98121.00
2023-02-02T02:48:12.888Z,98135.44
2023-02-02T02:50:41.405Z,98126.03
2023-02-02T02:53:13.995Z,98123.44
2023-02-02T02:55:49.619Z,98126.00
2023-02-02T02:58:23.626Z,98126.00
2023-02-02T03:01:06.505Z,98131.94
2023-02-02T03:03:44.620Z,98123.56
2023-02-02T03:06:19.314Z,98127.09
2023-02-02T03:08:53.333Z,98136.69
2023-02-02T03:11:22.492Z,98141.81
2023-02-02T03:13:51.132Z,98128.97
2023-02-02T03:16:19.537Z,98117.25
2023-02-02T03:18:49.462Z,98115.44
2023-02-02T03:21:18.006Z,98122.16
2023-02-02T03:23:46.426Z,98124.75
2023-02-02T03:26:15.108Z,98122.97
2023-02-02T03:28:43.856Z,98130.50
2023-02-02T03:31:12.422Z,98127.19
2023-02-02T03:33:40.945Z,98135.81
2023-02-02T03:36:11.250Z,98141.09
2023-02-02T03:38:39.705Z,98144.66
2023-02-02T03:41:08.244Z,98137.94
2023-02-02T03:43:36.743Z,98144.63
2023-02-02T03:46:06.819Z,98140.38
2023-02-02T03:48:37.041Z,98153.00
2023-02-02T03:51:11.653Z,98146.25
2023-02-02T03:53:40.676Z,98142.13
2023-02-02T03:56:09.108Z,98148.97
2023-02-02T03:58:37.622Z,98155.69
2023-02-02T04:01:08.219Z,98170.06
2023-02-02T04:03:36.721Z,98168.31
2023-02-02T04:06:05.261Z,98159.00
2023-02-02T04:08:35.151Z,98149.59
2023-02-02T04:11:03.847Z,98163.22
2023-02-02T04:13:32.317Z,98162.16
2023-02-02T04:16:01.798Z,98158.75
2023-02-02T04:18:30.615Z,98158.75
2023-02-02T04:20:59.827Z,98157.97
2023-02-02T04:23:29.752Z,98161.34
2023-02-02T04:26:00.594Z,98142.53
2023-02-02T04:28:29.403Z,98156.13
2023-02-02T04:30:58.640Z,98150.31
2023-02-02T04:33:28.301Z,98163.09
2023-02-02T04:35:57.054Z,98163.91
2023-02-02T04:38:25.720Z,98173.13
2023-02-02T04:40:54.389Z,98168.06
2023-02-02T04:43:24.221Z,98173.84
2023-02-02T04:45:56.597Z,98190.06
2023-02-02T04:48:25.118Z,98191.06
2023-02-02T04:51:00.344Z,98194.47
2023-02-02T04:53:29.154Z,98203.09
2023-02-02T04:56:06.857Z,98193.72
2023-02-02T04:58:36.861Z,98192.84
2023-02-02T05:01:10.072Z,98190.19
2023-02-02T05:03:39.062Z,98183.19
2023-02-02T05:06:07.981Z,98191.75
2023-02-02T05:08:37.276Z,98200.06
2023-02-02T05:11:10.056Z,98203.50
2023-02-02T05:13:39.835Z,98199.16
2023-02-02T05:16:08.836Z,98209.41
2023-02-02T05:18:37.304Z,98221.19
2023-02-02T05:21:06.390Z,98215.25
2023-02-02T05:23:34.839Z,98209.25
2023-02-02T05:26:03.288Z,98224.56
2023-02-02T05:28:31.933Z,98227.94
2023-02-02T05:31:01.853Z,98217.72
2023-02-02T05:33:36.667Z,98218.69
2023-02-02T05:36:05.986Z,98221.13
2023-02-02T05:38:34.483Z,98211.78
2023-02-02T05:41:03.536Z,98225.25
2023-02-02T05:43:33.337Z,98228.72
2023-02-02T05:46:03.225Z,98228.84
2023-02-02T05:48:32.237Z,98222.00
2023-02-02T05:51:04.719Z,98225.34
2023-02-02T05:53:33.789Z,98232.22
2023-02-02T05:56:02.267Z,98236.56
2023-02-02T05:58:30.731Z,98239.88
2023-02-02T06:00:59.238Z,98241.59
2023-02-02T06:03:29.208Z,98254.28
2023-02-02T06:05:57.789Z,98245.00
2023-02-02T06:08:26.425Z,98243.38
2023-02-02T06:10:54.830Z,98235.75
2023-02-02T06:13:23.522Z,98246.81
2023-02-02T06:15:52.091Z,98244.22
2023-02-02T06:18:20.529Z,98251.06
2023-02-02T06:20:50.295Z,98249.31
2023-02-02T06:23:18.673Z,98255.22
2023-02-02T06:25:47.165Z,98269.75
2023-02-02T06:28:15.665Z,98264.72
2023-02-02T06:30:44.449Z,98263.91
2023-02-02T06:33:13.307Z,98261.31
2023-02-02T06:35:41.797Z,98249.41
2023-02-02T06:38:11.963Z,98257.09
2023-02-02T06:40:40.241Z,98264.69
2023-02-02T06:43:09.007Z,98259.66
2023-02-02T06:45:40.169Z,98269.13
2023-02-02T06:48:10.945Z,98272.50
2023-02-02T06:50:39.713Z,98270.81
2023-02-02T06:53:08.205Z,98272.44
2023-02-02T06:55:37.974Z,98270.84
2023-02-02T06:58:06.449Z,98269.19
2023-02-02T07:00:36.990Z,98280.28
2023-02-02T07:03:05.941Z,98286.28
2023-02-02T07:05:34.473Z,98284.63
2023-02-02T07:08:03.321Z,98276.91
2023-02-02T07:11:14.112Z,98274.31
2023-02-02T07:13:21.682Z,98277.78
2023-02-02T07:15:50.109Z,98275.25
2023-02-02T07:18:18.694Z,98274.41
2023-02-02T07:20:47.071Z,98269.31
2023-02-02T07:23:15.582Z,98268.53
2023-02-02T07:25:44.411Z,98287.19
2023-02-02T07:28:12.843Z,98282.06
2023-02-02T07:30:42.778Z,98280.34
2023-02-02T07:33:11.307Z,98287.97
2023-02-02T07:35:39.886Z,98290.50
2023-02-02T07:38:08.396Z,98292.28
2023-02-02T07:40:36.924Z,98292.28
2023-02-02T07:43:05.459Z,98285.50
2023-02-02T07:45:33.980Z,98286.34
2023-02-02T07:48:04.643Z,98300.81
2023-02-02T07:50:33.052Z,98294.00
2023-02-02T07:53:01.593Z,98299.13
2023-02-02T07:55:30.653Z,98299.91
2023-02-02T07:57:59.315Z,98304.09
2023-02-02T08:00:28.260Z,98303.25
2023-02-02T08:02:57.923Z,98302.44
2023-02-02T08:05:28.897Z,98296.44
2023-02-02T08:07:58.842Z,98286.25
2023-02-02T08:10:28.398Z,98280.16
2023-02-02T08:12:57.528Z,98282.63
2023-02-02T08:15:26.628Z,98280.03
2023-02-02T08:17:56.113Z,98274.13
2023-02-02T08:20:25.062Z,98268.00
2023-02-02T08:22:55.135Z,98271.38
2023-02-02T08:25:25.426Z,98287.41
2023-02-02T08:27:55.019Z,98280.53
2023-02-02T08:30:23.621Z,98282.09
2023-02-02T08:32:52.101Z,98296.38
2023-02-02T08:35:21.711Z,98295.41
2023-02-02T08:37:50.804Z,98291.91
2023-02-02T08:40:21.148Z,98302.13
2023-02-02T08:42:54.541Z,98294.41
2023-02-02T08:46:13.250Z,98300.34
2023-02-02T08:48:12.878Z,98317.38
2023-02-02T08:50:41.607Z,98316.38
2023-02-02T08:53:10.092Z,98308.72
2023-02-02T08:55:39.946Z,98321.50
2023-02-02T08:58:10.041Z,98328.34
2023-02-02T09:00:38.572Z,98336.94
2023-02-02T09:03:07.004Z,98331.75
2023-02-02T09:05:38.306Z,98328.34
2023-02-02T09:08:07.188Z,98330.94
2023-02-02T09:10:37.024Z,98329.25
2023-02-02T09:13:06.793Z,98333.47
2023-02-02T09:15:35.233Z,98329.25
2023-02-02T09:18:03.718Z,98325.84
2023-02-02T09:20:32.412Z,98326.66
2023-02-02T09:23:00.829Z,98330.06
2023-02-02T09:25:29.339Z,98337.75
2023-02-02T09:27:58.249Z,98340.31
2023-02-02T09:30:28.062Z,98340.31
2023-02-02T09:32:56.455Z,98347.19
2023-02-02T09:35:25.301Z,98348.91
2023-02-02T09:37:53.995Z,98347.16
2023-02-02T09:40:22.468Z,98338.56
2023-02-02T09:43:04.114Z,98343.72
2023-02-02T09:45:40.190Z,98347.22
2023-02-02T09:48:21.921Z,98341.16
2023-02-02T09:50:55.659Z,98352.16
2023-02-02T09:53:33.126Z,98340.97
2023-02-02T09:56:07.966Z,98349.56
2023-02-02T09:58:46.302Z,98354.72
2023-02-02T10:01:21.845Z,98362.34
2023-02-02T10:03:59.459Z,98367.47
2023-02-02T10:06:35.418Z,98364.81
2023-02-02T10:09:13.921Z,98360.63
2023-02-02T10:11:49.980Z,98364.78
2023-02-02T10:14:24.001Z,98369.88
2023-02-02T10:16:56.601Z,98372.38
2023-02-02T10:19:29.243Z,98372.56
2023-02-02T10:22:06.371Z,98364.81
2023-02-02T10:24:36.145Z,98375.13
2023-02-02T10:27:07.262Z,98385.50
2023-02-02T10:29:49.112Z,98386.34
2023-02-02T10:32:25.725Z,98367.66
2023-02-02T10:35:12.968Z,98366.03
2023-02-02T10:37:51.733Z,98378.72
2023-02-02T10:40:33.574Z,98376.28
2023-02-02T10:43:37.119Z,98388.28
2023-02-02T10:46:10.357Z,98383.13
2023-02-02T10:48:41.745Z,98387.41
2023-02-02T10:51:18.878Z,98388.16
2023-02-02T10:53:53.426Z,98396.91
2023-02-02T10:56:25.931Z,98386.59
2023-02-02T10:59:04.061Z,98397.63
2023-02-02T11:01:32.922Z,98391.66
2023-02-02T11:04:20.273Z,98392.34
2023-02-02T11:06:52.075Z,98381.41
2023-02-02T11:09:23.984Z,98401.75
2023-02-02T11:11:56.671Z,98396.66
2023-02-02T11:14:45.188Z,98405.25
2023-02-02T11:17:20.652Z,98390.03
2023-02-02T11:19:51.339Z,98400.16
2023-02-02T11:22:29.029Z,98401.03
2023-02-02T11:24:59.968Z,98408.66
2023-02-02T11:27:30.647Z,98388.31
2023-02-02T11:30:00.963Z,98398.66
2023-02-02T11:32:31.119Z,98409.63
2023-02-02T11:35:21.436Z,98403.50
2023-02-02T11:37:58.618Z,98406.28
2023-02-02T11:40:33.558Z,98404.50
2023-02-02T11:43:06.129Z,98396.06
2023-02-02T11:45:37.445Z,98390.88
2023-02-02T11:48:09.030Z,98394.28
2023-02-02T11:50:38.993Z,98404.50
2023-02-02T11:53:07.487Z,98393.50
2023-02-02T11:55:36.191Z,98386.59
2023-02-02T11:58:19.778Z,98392.44
2023-02-02T12:00:49.776Z,98398.34
2023-02-02T12:03:27.129Z,98397.56
2023-02-02T12:05:57.278Z,98394.09
2023-02-02T12:08:25.883Z,98395.84
2023-02-02T12:10:59.902Z,98390.66
2023-02-02T12:13:41.472Z,98398.38
2023-02-02T12:16:23.092Z,98391.53
2023-02-02T12:19:08.751Z,98380.44
2023-02-02T12:21:47.056Z,98386.50
2023-02-02T12:24:29.066Z,98382.25
2023-02-02T12:27:08.323Z,98377.09
2023-02-02T12:29:49.206Z,98377.13
2023-02-02T12:32:30.033Z,98378.03
2023-02-02T12:35:16.470Z,98372.09
2023-02-02T12:37:58.729Z,98383.19
2023-02-02T12:40:43.143Z,98366.13
2023-02-02T12:43:24.617Z,98371.22
2023-02-02T12:46:05.160Z,98378.06
2023-02-02T12:48:50.332Z,98374.72
2023-02-02T12:51:32.324Z,98377.25
2023-02-02T12:54:33.297Z,98380.78
2023-02-02T12:57:17.206Z,98378.06
2023-02-02T13:00:05.090Z,98385.72
2023-02-02T13:02:42.254Z,98379.81
2023-02-02T13:05:28.203Z,98377.25
2023-02-02T13:07:59.241Z,98390.84
2023-02-02T13:10:35.712Z,98399.41
2023-02-02T13:13:11.161Z,98376.38
2023-02-02T13:15:43.367Z,98381.50
2023-02-02T13:18:16.873Z,98395.97
2023-02-02T13:20:49.239Z,98389.06
2023-02-02T13:23:23.167Z,98391.56
2023-02-02T13:25:59.026Z,98397.53
2023-02-02T13:28:39.069Z,98398.34
2023-02-02T13:31:15.585Z,98395.03
2023-02-02T13:33:48.497Z,98406.81
2023-02-02T13:36:25.910Z,98392.28
2023-02-02T13:38:57.528Z,98395.72
2023-02-02T13:41:28.815Z,98403.25
2023-02-02T13:44:02.558Z,98410.19
2023-02-02T13:46:37.714Z,98410.22
2023-02-02T13:49:13.364Z,98422.06
2023-02-02T13:52:10.276Z,98414.53
2023-02-02T13:55:24.900Z,98425.63
2023-02-02T13:58:12.930Z,98435.88
2023-02-02T14:00:47.552Z,98430.78
2023-02-02T14:03:29.985Z,98440.88
2023-02-02T14:06:08.285Z,98434.19
2023-02-02T14:08:38.016Z,98433.22
2023-02-02T14:11:09.100Z,98436.72
2023-02-02T14:14:04.781Z,98434.97
2023-02-02T14:16:50.893Z,98446.06
2023-02-02T14:19:51.901Z,98441.78
2023-02-02T14:22:39.777Z,98457.06
2023-02-02T14:25:41.887Z,98461.38
2023-02-02T14:28:12.204Z,98457.84
2023-02-02T14:30:41.423Z,98464.69
2023-02-02T14:33:39.577Z,98464.69
2023-02-02T14:36:15.631Z,98473.22
2023-02-02T14:39:09.474Z,98473.22
2023-02-02T14:42:15.257Z,98473.16
2023-02-02T14:45:07.908Z,98462.03
2023-02-02T14:47:47.160Z,98444.09
2023-02-02T14:50:18.769Z,98467.94
2023-02-02T14:53:00.474Z,98464.47
2023-02-02T14:55:29.922Z,98467.94
2023-02-02T14:58:01.110Z,98478.88
2023-02-02T15:00:32.983Z,98483.13
2023-02-02T15:03:34.145Z,98477.94
2023-02-02T15:06:03.194Z,98484.75
2023-02-02T15:08:33.051Z,98482.25
2023-02-02T15:11:21.116Z,98476.34
2023-02-02T15:13:54.021Z,98479.75
2023-02-02T15:16:28.508Z,98485.72
2023-02-02T15:19:06.274Z,98485.69
2023-02-02T15:21:38.660Z,98482.34
2023-02-02T15:24:20.559Z,98486.53
2023-02-02T15:26:51.123Z,98491.81
2023-02-02T15:29:30.661Z,98494.31
2023-02-02T15:32:01.266Z,98501.94
2023-02-02T15:34:39.848Z,98495.09
2023-02-02T15:37:13.075Z,98505.31
2023-02-02T15:39:44.493Z,98497.66
2023-02-02T15:42:35.284Z,98504.44
2023-02-02T15:45:03.886Z,98511.25
2023-02-02T15:47:34.812Z,98514.66
2023-02-02T15:50:17.707Z,98520.56
2023-02-02T15:52:48.195Z,98518.03
2023-02-02T15:55:23.909Z,98532.38
2023-02-02T15:57:55.205Z,98528.13
2023-02-02T16:00:26.797Z,98542.63
2023-02-02T16:03:01.278Z,98546.09
2023-02-02T16:05:44.145Z,98552.03
2023-02-02T16:08:18.901Z,98551.13
2023-02-02T16:10:49.987Z,98555.41
2023-02-02T16:13:28.412Z,98568.13
2023-02-02T16:16:02.035Z,98568.19
2023-02-02T16:18:31.543Z,98562.22
2023-02-02T16:21:03.178Z,98572.44
2023-02-02T16:23:35.262Z,98577.59
2023-02-02T16:26:07.454Z,98578.31
2023-02-02T16:28:36.470Z,98574.06
2023-02-02T16:31:06.927Z,98581.66
2023-02-02T16:33:38.413Z,98585.13
2023-02-02T16:36:25.133Z,98589.41
2023-02-02T16:38:56.048Z,98605.59
2023-02-02T16:41:33.781Z,98603.81
2023-02-02T16:44:32.050Z,98605.59
2023-02-02T16:47:01.492Z,98608.25
2023-02-02T16:49:31.269Z,98619.28
2023-02-02T16:52:10.819Z,98623.59
2023-02-02T16:54:42.379Z,98633.91
2023-02-02T16:57:19.138Z,98630.53
2023-02-02T16:59:51.081Z,98631.50
2023-02-02T17:02:28.916Z,98639.88
2023-02-02T17:05:01.271Z,98640.75
2023-02-02T17:07:32.816Z,98646.75
2023-02-02T17:10:15.093Z,98654.44
2023-02-02T17:12:46.411Z,98659.47
2023-02-02T17:15:34.505Z,98656.09
2023-02-02T17:18:04.648Z,98667.16
2023-02-02T17:20:34.393Z,98668.06
2023-02-02T17:23:06.967Z,98668.06
2023-02-02T17:25:38.032Z,98670.63
2023-02-02T17:28:12.472Z,98658.66
2023-02-02T17:30:42.461Z,98672.16
2023-02-02T17:33:14.705Z,98666.25
2023-02-02T17:35:54.466Z,98668.78
2023-02-02T17:38:24.823Z,98674.75
2023-02-02T17:40:54.418Z,98681.56
2023-02-02T17:43:24.367Z,98690.97
2023-02-02T17:45:53.168Z,98693.53
2023-02-02T17:48:21.886Z,98701.25
2023-02-02T17:50:50.621Z,98702.81
2023-02-02T17:53:21.621Z,98702.88
2023-02-02T17:55:51.509Z,98708.03
2023-02-02T17:58:20.364Z,98717.34
2023-02-02T18:00:54.728Z,98704.56
2023-02-02T18:03:27.166Z,98724.94
2023-02-02T18:05:57.552Z,98721.50
2023-02-02T18:08:26.146Z,98725.75
2023-02-02T18:10:55.017Z,98728.28
2023-02-02T18:13:24.632Z,98719.78
2023-02-02T18:15:56.083Z,98724.00
2023-02-02T18:18:24.892Z,98718.03
2023-02-02T18:20:53.825Z,98721.41
2023-02-02T18:23:24.550Z,98733.41
2023-02-02T18:25:53.629Z,98726.63
2023-02-02T18:28:22.225Z,98730.88
2023-02-02T18:30:50.753Z,98728.34
2023-02-02T18:33:20.655Z,98719.72
2023-02-02T18:35:49.272Z,98724.81
2023-02-02T18:38:18.108Z,98735.88
2023-02-02T18:40:46.987Z,98721.44
2023-02-02T18:43:15.553Z,98717.97
2023-02-02T18:45:44.026Z,98716.19
2023-02-02T18:48:12.974Z,98725.69
2023-02-02T18:50:42.862Z,98721.38
2023-02-02T18:53:11.457Z,98719.75
2023-02-02T18:55:39.979Z,98729.91
2023-02-02T18:58:10.620Z,98727.38
2023-02-02T19:00:39.022Z,98734.22
2023-02-02T19:03:08.747Z,98729.94
2023-02-02T19:05:54.702Z,98735.03
2023-02-02T19:08:24.585Z,98723.19
2023-02-02T19:11:00.095Z,98724.06
2023-02-02T19:13:29.916Z,98724.06
2023-02-02T19:16:00.330Z,98728.28
2023-02-02T19:18:32.720Z,98730.84
2023-02-02T19:21:01.285Z,98732.59
2023-02-02T19:23:33.098Z,98730.91
2023-02-02T19:26:01.813Z,98748.81
2023-02-02T19:28:32.463Z,98748.84
2023-02-02T19:31:02.796Z,98750.53
2023-02-02T19:33:39.303Z,98760.75
2023-02-02T19:36:14.376Z,98764.13
2023-02-02T19:38:44.358Z,98760.72
2023-02-02T19:41:20.493Z,98748.84
2023-02-02T19:43:50.145Z,98747.91
2023-02-02T19:46:22.785Z,98750.47
2023-02-02T19:48:54.767Z,98746.38
2023-02-02T19:51:41.688Z,98760.03
2023-02-02T19:54:26.792Z,98760.03
2023-02-02T19:56:58.623Z,98748.22
2023-02-02T19:59:33.260Z,98750.78
2023-02-02T20:02:29.591Z,98756.75
2023-02-02T20:05:03.655Z,98767.00
2023-02-02T20:07:32.213Z,98766.13
2023-02-02T20:10:14.940Z,98764.41
2023-02-02T20:12:43.513Z,98766.06
2023-02-02T20:15:33.290Z,98757.59
2023-02-02T20:18:04.138Z,98752.44
2023-02-02T20:20:38.915Z,98751.63
2023-02-02T20:23:21.054Z,98751.59
2023-02-02T20:25:50.944Z,98744.00
2023-02-02T20:28:33.302Z,98743.16
2023-02-02T20:31:04.386Z,98737.25
2023-02-02T20:33:33.503Z,98746.56
2023-02-02T20:36:03.023Z,98727.97
2023-02-02T20:38:39.785Z,98736.44
2023-02-02T20:41:10.027Z,98745.75
2023-02-02T20:43:38.671Z,98745.78
2023-02-02T20:46:07.286Z,98745.75
2023-02-02T20:48:35.881Z,98748.22
2023-02-02T20:51:04.793Z,98750.78
2023-02-02T20:53:33.408Z,98736.28
2023-02-02T20:56:02.812Z,98738.88
2023-02-02T20:58:32.812Z,98743.94
2023-02-02T21:01:05.333Z,98740.56
2023-02-02T21:03:33.996Z,98746.50
2023-02-02T21:06:02.488Z,98751.59
2023-02-02T21:08:31.369Z,98748.22
2023-02-02T21:11:00.098Z,98760.91
2023-02-02T21:13:28.855Z,98756.66
2023-02-02T21:15:58.748Z,98765.16
2023-02-02T21:18:27.279Z,98759.25
2023-02-02T21:20:55.782Z,98760.16
2023-02-02T21:23:24.323Z,98764.44
2023-02-02T21:25:52.827Z,98760.19
2023-02-02T21:28:21.395Z,98752.59
2023-02-02T21:30:50.328Z,98755.97
2023-02-02T21:33:20.191Z,98757.63
2023-02-02T21:35:48.671Z,98752.50
2023-02-02T21:38:17.356Z,98751.66
2023-02-02T21:40:47.206Z,98765.28
2023-02-02T21:43:18.662Z,98766.06
2023-02-02T21:45:51.172Z,98771.22
2023-02-02T21:48:30.568Z,98782.31
2023-02-02T21:51:21.821Z,98790.88
2023-02-02T21:53:50.571Z,98780.72
2023-02-02T21:56:28.247Z,98807.00
2023-02-02T21:59:00.327Z,98802.69
2023-02-02T22:01:36.540Z,98812.06
2023-02-02T22:04:16.235Z,98807.81
2023-02-02T22:06:46.972Z,98807.00
2023-02-02T22:09:20.279Z,98800.09
2023-02-02T22:11:52.651Z,98804.34
2023-02-02T22:14:26.020Z,98809.53
2023-02-02T22:16:58.166Z,98796.78
2023-02-02T22:19:32.486Z,98796.78
2023-02-02T22:22:14.354Z,98801.06
2023-02-02T22:24:43.839Z,98799.25
2023-02-02T22:27:21.634Z,98801.03
2023-02-02T22:29:53.726Z,98787.31
2023-02-02T22:32:22.397Z,98791.56
2023-02-02T22:34:52.195Z,98798.38
2023-02-02T22:37:20.734Z,98803.44
2023-02-02T22:39:49.205Z,98788.94
2023-02-02T22:42:18.355Z,98784.72
2023-02-02T22:44:47.154Z,98786.41
2023-02-02T22:47:15.622Z,98780.44
2023-02-02T22:49:44.154Z,98787.28
2023-02-02T22:52:13.987Z,98779.59
2023-02-02T22:54:42.919Z,98779.59
2023-02-02T22:57:11.645Z,98788.09
2023-02-02T22:59:40.037Z,98784.69
2023-02-02T23:02:08.686Z,98787.16
2023-02-02T23:04:37.115Z,98793.13
2023-02-02T23:07:06.026Z,98779.41
2023-02-02T23:09:35.899Z,98782.84
2023-02-02T23:12:04.305Z,98775.25
2023-02-02T23:14:32.732Z,98783.69
2023-02-02T23:17:01.161Z,98784.53
2023-02-02T23:19:29.712Z,98765.81
2023-02-02T23:21:58.235Z,98771.72
2023-02-02T23:24:26.658Z,98768.28
2023-02-02T23:26:56.445Z,98781.94
2023-02-02T23:29:25.089Z,98790.44
2023-02-02T23:31:53.603Z,98786.13
2023-02-02T23:34:22.120Z,98798.06
2023-02-02T23:36:50.617Z,98804.06
2023-02-02T23:39:19.079Z,98793.78
2023-02-02T23:41:47.601Z,98798.94
2023-02-02T23:44:17.402Z,98802.34
2023-02-02T23:46:45.965Z,98809.19
2023-02-02T23:49:14.655Z,98801.53
2023-02-02T23:51:43.255Z,98794.75
2023-02-02T23:54:13.641Z,98800.75
2023-02-02T23:56:43.336Z,98808.53
2023-02-02T23:59:12.461Z,98812.84
